Buriti Bravo, Brazil
Current Conditions -  °F | °C
As of 11:00 AM on Thursday 30 Oct 2014 (Local Time) from SBTE Reporting Station
Scattered Clouds Scattered Clouds  
Wind Chill: 95°   Ceiling: Unl
Heat Index: 95°   Visibility: 6mi
Dew Point: 61°   Wind: 3mph
Humidity: 32%   Direction: 120°ESE
Pressure: 29.83"   Gusts: NA
Location:  5.84°S, 43.83°W
Report Text: SBTE 301400Z 12003KT 9999 SCT030 35/16 Q1010
Loading
Personal Weather Stations






























Interactive Weather Map
Tropical Storm Tracking
New forecast layout! Learn more

10-Day Weather Forecast

Advertisements
Track Severe Weather on mobile